Time;durP1;ratioP1;P1;durP2;ratioP2;P2;SDS_P1;SDS_P2;PMS_P1;PMS_P2;Temp;Humidity;BMP_temperature;BMP_pressure;BME280_temperature;BME280_humidity;BME280_pressure;Samples;Min_cycle;Max_cycle;Signal;HPM_P1;HPM_P2
2021/06/18 00:00:21;;;;;;;45.28;27.70;;;;;;;;;;5042988;28;20036;-43
2021/06/18 00:02:48;;;;;;;39.22;24.70;;;;;;;;;;5042888;28;20048;-43
2021/06/18 00:05:15;;;;;;;33.10;20.65;;;;;;;;;;5042956;28;20029;-44
2021/06/18 00:07:43;;;;;;;16.05;9.00;;;;;;;;;;5043104;28;20543;-43
2021/06/18 00:10:10;;;;;;;15.52;10.23;;;;;;;;;;5042765;28;20025;-43
2021/06/18 00:12:36;;;;;;;27.63;16.05;;;;;;;;;;5042810;28;20046;-44
2021/06/18 00:15:02;;;;;;;29.33;16.83;;;;;;;;;;5042526;28;20428;-43
2021/06/18 00:17:28;;;;;;;19.70;13.50;;;;;;;;;;5042750;28;20025;-43
2021/06/18 00:19:55;;;;;;;10.43;8.38;;;;;;;;;;5042544;28;20025;-43
2021/06/18 00:22:21;;;;;;;27.73;16.10;;;;;;;;;;5042851;28;20021;-42
2021/06/18 00:24:47;;;;;;;36.65;20.58;;;;;;;;;;5042861;28;20083;-42
2021/06/18 00:27:13;;;;;;;23.48;15.43;;;;;;;;;;5042743;28;20597;-46
2021/06/18 00:29:39;;;;;;;28.13;18.25;;;;;;;;;;5042373;28;20032;-43
2021/06/18 00:32:05;;;;;;;12.30;8.68;;;;;;;;;;5042412;28;20115;-43
2021/06/18 00:34:31;;;;;;;14.07;8.10;;;;;;;;;;5043312;28;20476;-41
2021/06/18 00:36:57;;;;;;;12.90;7.75;;;;;;;;;;5042539;28;20031;-44
2021/06/18 00:39:23;;;;;;;7.32;6.22;;;;;;;;;;5042636;28;20036;-43
2021/06/18 00:41:50;;;;;;;9.52;6.63;;;;;;;;;;5093443;28;20032;-43
2021/06/18 00:44:16;;;;;;;8.07;5.88;;;;;;;;;;5093369;28;20036;-43
2021/06/18 00:46:42;;;;;;;7.05;5.68;;;;;;;;;;5093222;28;20095;-41
2021/06/18 00:49:10;;;;;;;8.57;5.68;;;;;;;;;;5093178;28;20154;-42
2021/06/18 00:51:37;;;;;;;14.05;10.63;;;;;;;;;;5093093;28;20520;-43
2021/06/18 00:54:03;;;;;;;14.05;9.85;;;;;;;;;;5093170;28;20376;-43
2021/06/18 00:56:29;;;;;;;20.08;10.68;;;;;;;;;;5093141;28;20019;-43
2021/06/18 00:58:56;;;;;;;18.95;10.57;;;;;;;;;;5093059;28;20092;-42
2021/06/18 01:01:22;;;;;;;8.18;5.93;;;;;;;;;;5092957;28;20020;-42
2021/06/18 01:03:48;;;;;;;13.70;9.82;;;;;;;;;;5093151;28;20028;-42
2021/06/18 01:06:18;;;;;;;20.40;13.35;;;;;;;;;;5092954;28;20062;-43
2021/06/18 01:08:44;;;;;;;15.07;10.02;;;;;;;;;;5091712;28;20109;-43
2021/06/18 01:11:28;;;;;;;10.90;6.47;;;;;;;;;;5092830;28;20446;-44
2021/06/18 01:14:13;;;;;;;10.82;7.30;;;;;;;;;;5092704;28;20075;-43
2021/06/18 01:17:03;;;;;;;11.27;7.72;;;;;;;;;;5092700;28;20039;-43
2021/06/18 01:19:29;;;;;;;;;;;;;;;;;;5093303;28;20062;-41
2021/06/18 01:21:57;;;;;;;16.35;10.88;;;;;;;;;;5092915;28;19905;-44
2021/06/18 01:24:26;;;;;;;10.07;7.68;;;;;;;;;;5092811;28;20410;-43
2021/06/18 01:27:15;;;;;;;7.32;5.32;;;;;;;;;;5092904;28;20464;-43
2021/06/18 01:29:43;;;;;;;8.85;6.60;;;;;;;;;;5093034;28;20020;-43
2021/06/18 01:32:09;;;;;;;6.65;5.80;;;;;;;;;;5092574;28;20116;-43
2021/06/18 01:34:36;;;;;;;24.15;16.08;;;;;;;;;;5092697;28;20081;-43
2021/06/18 01:37:05;;;;;;;17.98;12.23;;;;;;;;;;5092792;28;20031;-42
2021/06/18 01:39:32;;;;;;;19.35;12.88;;;;;;;;;;5092882;28;20023;-44
2021/06/18 01:42:00;;;;;;;24.73;18.55;;;;;;;;;;5092725;28;20027;-44
2021/06/18 01:44:26;;;;;;;24.13;16.27;;;;;;;;;;5092667;28;20048;-42
2021/06/18 01:46:53;;;;;;;48.83;30.92;;;;;;;;;;5095191;28;20024;-42
2021/06/18 01:49:20;;;;;;;34.47;23.45;;;;;;;;;;5095267;28;20488;-43
2021/06/18 01:51:49;;;;;;;20.52;13.80;;;;;;;;;;5096392;28;20036;-43
2021/06/18 01:54:15;;;;;;;15.48;9.05;;;;;;;;;;5096418;28;20030;-43
2021/06/18 01:56:41;;;;;;;16.63;11.35;;;;;;;;;;5096222;28;20469;-43
2021/06/18 01:59:08;;;;;;;11.57;8.80;;;;;;;;;;5096406;28;20070;-42
2021/06/18 02:01:36;;;;;;;23.48;15.35;;;;;;;;;;5096232;28;20103;-42
2021/06/18 02:04:05;;;;;;;13.20;10.32;;;;;;;;;;5096294;28;20447;-42
2021/06/18 02:06:32;;;;;;;17.08;10.40;;;;;;;;;;5096246;28;20031;-42
2021/06/18 02:09:01;;;;;;;12.90;8.00;;;;;;;;;;5096154;28;20106;-42
2021/06/18 02:11:28;;;;;;;14.85;10.52;;;;;;;;;;5095995;28;20034;-42
2021/06/18 02:13:56;;;;;;;10.98;7.38;;;;;;;;;;5095864;28;20117;-43
2021/06/18 02:16:24;;;;;;;10.13;7.35;;;;;;;;;;5096027;28;20024;-43
2021/06/18 02:18:50;;;;;;;10.93;6.90;;;;;;;;;;5096133;28;20056;-43
2021/06/18 02:21:17;;;;;;;12.27;7.25;;;;;;;;;;5095944;28;20099;-43
2021/06/18 02:23:44;;;;;;;9.52;6.82;;;;;;;;;;5096022;28;20034;-43
2021/06/18 02:26:10;;;;;;;9.98;7.20;;;;;;;;;;5095745;28;20028;-43
2021/06/18 02:28:37;;;;;;;7.70;5.95;;;;;;;;;;5096149;28;20016;-43
2021/06/18 02:31:03;;;;;;;6.70;5.53;;;;;;;;;;5095908;28;20028;-43
2021/06/18 02:33:29;;;;;;;8.50;6.18;;;;;;;;;;5095637;28;20464;-43
2021/06/18 02:35:57;;;;;;;12.43;6.50;;;;;;;;;;5095626;28;20016;-43
2021/06/18 02:38:23;;;;;;;6.68;5.10;;;;;;;;;;5095576;28;20039;-42
2021/06/18 02:40:50;;;;;;;7.50;5.65;;;;;;;;;;5095562;28;20492;-43
2021/06/18 02:43:16;;;;;;;7.80;6.00;;;;;;;;;;5095518;28;20036;-43
2021/06/18 02:45:42;;;;;;;10.95;5.82;;;;;;;;;;5095489;28;20028;-43
2021/06/18 02:48:08;;;;;;;12.00;6.22;;;;;;;;;;5095659;28;20016;-43
2021/06/18 02:50:42;;;;;;;11.48;5.72;;;;;;;;;;5095666;28;20031;-42
2021/06/18 02:53:25;;;;;;;10.15;6.15;;;;;;;;;;5095454;28;20479;-42
2021/06/18 02:55:52;;;;;;;12.50;5.43;;;;;;;;;;5095541;28;20027;-43
2021/06/18 02:58:24;;;;;;;7.13;5.25;;;;;;;;;;5095324;28;20030;-42
2021/06/18 03:00:49;;;;;;;;;;;;;;;;;;5095722;28;20020;-40
2021/06/18 03:03:19;;;;;;;6.22;5.45;;;;;;;;;;5095056;28;19926;-43
2021/06/18 03:05:49;;;;;;;7.72;5.20;;;;;;;;;;5094138;28;20051;-43
2021/06/18 03:08:16;;;;;;;7.70;5.70;;;;;;;;;;5095241;28;20036;-42
2021/06/18 03:10:45;;;;;;;7.53;4.88;;;;;;;;;;5095404;28;20499;-42
2021/06/18 03:13:16;;;;;;;7.95;4.78;;;;;;;;;;5094912;28;20020;-42
2021/06/18 03:15:44;;;;;;;8.38;5.07;;;;;;;;;;5094969;28;20020;-43
2021/06/18 03:18:11;;;;;;;7.32;5.35;;;;;;;;;;5094815;28;20020;-41
2021/06/18 03:20:37;;;;;;;5.38;4.75;;;;;;;;;;5095099;28;20119;-43
2021/06/18 03:23:06;;;;;;;6.85;4.97;;;;;;;;;;5094804;28;20052;-42
2021/06/18 03:25:34;;;;;;;11.48;5.63;;;;;;;;;;5095006;28;20073;-44
2021/06/18 03:28:00;;;;;;;9.13;5.20;;;;;;;;;;5094830;28;20103;-43
2021/06/18 03:30:26;;;;;;;7.57;4.63;;;;;;;;;;5094441;28;20032;-42
2021/06/18 03:32:53;;;;;;;7.85;5.70;;;;;;;;;;5094581;28;20039;-43
2021/06/18 03:35:20;;;;;;;19.63;12.95;;;;;;;;;;5094425;28;20031;-42
2021/06/18 03:37:47;;;;;;;42.53;22.52;;;;;;;;;;5093320;28;20464;-42
2021/06/18 03:40:13;;;;;;;54.92;29.98;;;;;;;;;;5093067;28;20082;-43
2021/06/18 03:42:40;;;;;;;87.00;45.40;;;;;;;;;;5093010;28;20102;-43
2021/06/18 03:45:07;;;;;;;104.00;53.78;;;;;;;;;;5094432;28;20062;-43
2021/06/18 03:47:34;;;;;;;59.58;32.50;;;;;;;;;;5094308;28;20016;-44
2021/06/18 03:50:00;;;;;;;34.10;17.35;;;;;;;;;;5093924;28;20033;-45
2021/06/18 03:52:26;;;;;;;21.83;12.70;;;;;;;;;;5092902;28;20031;-44
2021/06/18 03:54:53;;;;;;;17.70;9.50;;;;;;;;;;5094249;28;20132;-44
2021/06/18 03:57:19;;;;;;;13.38;7.80;;;;;;;;;;5094039;28;20031;-44
2021/06/18 03:59:46;;;;;;;13.75;7.55;;;;;;;;;;5094254;28;20093;-44
2021/06/18 04:02:14;;;;;;;12.43;6.65;;;;;;;;;;5093877;28;20480;-44
2021/06/18 04:04:40;;;;;;;12.20;6.50;;;;;;;;;;5093901;28;20104;-44
2021/06/18 04:07:07;;;;;;;9.73;5.75;;;;;;;;;;5093941;28;20020;-43
2021/06/18 04:09:34;;;;;;;10.38;5.93;;;;;;;;;;5093451;28;20028;-45
2021/06/18 04:12:00;;;;;;;9.52;5.63;;;;;;;;;;5093891;28;20081;-45
2021/06/18 04:14:28;;;;;;;7.88;5.18;;;;;;;;;;5092457;28;20042;-43
2021/06/18 04:16:54;;;;;;;7.65;5.75;;;;;;;;;;5093559;28;20089;-43
2021/06/18 04:19:20;;;;;;;7.22;5.35;;;;;;;;;;5093623;28;20016;-43
2021/06/18 04:21:46;;;;;;;9.00;5.43;;;;;;;;;;5093544;28;20460;-43
2021/06/18 04:24:13;;;;;;;10.25;5.18;;;;;;;;;;5093493;28;20046;-43
2021/06/18 04:26:40;;;;;;;6.63;4.55;;;;;;;;;;5093513;28;20016;-45
2021/06/18 04:29:06;;;;;;;6.93;5.03;;;;;;;;;;5091915;28;20035;-43
2021/06/18 04:31:32;;;;;;;7.70;4.60;;;;;;;;;;5093136;28;20031;-43
2021/06/18 04:33:58;;;;;;;6.13;4.90;;;;;;;;;;5093425;28;20024;-44
2021/06/18 04:36:24;;;;;;;7.85;6.20;;;;;;;;;;5093264;28;20395;-43
2021/06/18 04:38:50;;;;;;;5.72;4.88;;;;;;;;;;5093318;28;20036;-43
2021/06/18 04:41:17;;;;;;;7.15;5.13;;;;;;;;;;5093398;28;20034;-46
2021/06/18 04:43:43;;;;;;;13.30;5.88;;;;;;;;;;5093300;28;20028;-43
2021/06/18 04:46:09;;;;;;;7.93;5.32;;;;;;;;;;5093107;28;20032;-44
2021/06/18 04:48:36;;;;;;;7.38;4.90;;;;;;;;;;5093073;28;20027;-47
2021/06/18 04:51:02;;;;;;;9.25;5.47;;;;;;;;;;5092894;28;20468;-43
2021/06/18 04:53:28;;;;;;;9.07;5.35;;;;;;;;;;5093051;28;20046;-43
2021/06/18 04:55:54;;;;;;;7.32;5.32;;;;;;;;;;5093331;28;20032;-44
2021/06/18 04:58:21;;;;;;;7.47;5.68;;;;;;;;;;5093268;28;20495;-44
2021/06/18 05:00:49;;;;;;;6.05;4.60;;;;;;;;;;5093140;28;20085;-44
2021/06/18 05:03:15;;;;;;;12.25;6.45;;;;;;;;;;5091642;28;20505;-44
2021/06/18 05:05:41;;;;;;;24.92;15.45;;;;;;;;;;5093271;28;20024;-43
2021/06/18 05:08:07;;;;;;;16.63;10.57;;;;;;;;;;5093101;28;20111;-44
2021/06/18 05:10:33;;;;;;;16.45;11.05;;;;;;;;;;5093041;28;20109;-44
2021/06/18 05:12:59;;;;;;;16.73;11.25;;;;;;;;;;5093018;28;20032;-44
2021/06/18 05:15:25;;;;;;;17.05;9.52;;;;;;;;;;5092753;28;20567;-42
2021/06/18 05:17:52;;;;;;;38.42;23.40;;;;;;;;;;5092866;28;20035;-43
2021/06/18 05:20:18;;;;;;;27.85;16.80;;;;;;;;;;5092946;28;20027;-45
2021/06/18 05:22:44;;;;;;;23.88;14.15;;;;;;;;;;5096990;28;20548;-44
2021/06/18 05:25:11;;;;;;;29.67;17.92;;;;;;;;;;5097037;28;20039;-44
2021/06/18 05:27:37;;;;;;;22.90;13.75;;;;;;;;;;5097276;28;20104;-43
2021/06/18 05:30:04;;;;;;;9.55;6.05;;;;;;;;;;5096866;28;20028;-43
2021/06/18 05:32:30;;;;;;;9.27;6.95;;;;;;;;;;5096780;28;20043;-45
2021/06/18 05:34:56;;;;;;;23.75;14.73;;;;;;;;;;5096924;28;20031;-44
2021/06/18 05:37:22;;;;;;;22.60;13.38;;;;;;;;;;5097047;28;20579;-43
2021/06/18 05:39:48;;;;;;;22.40;13.65;;;;;;;;;;5097136;28;20047;-43
2021/06/18 05:42:14;;;;;;;12.93;8.65;;;;;;;;;;5097036;28;20073;-43
2021/06/18 05:44:40;;;;;;;16.17;8.57;;;;;;;;;;5096511;28;20105;-44
2021/06/18 05:47:06;;;;;;;23.77;14.25;;;;;;;;;;5096828;28;20024;-44
2021/06/18 05:49:32;;;;;;;13.45;9.30;;;;;;;;;;5096746;28;20089;-45
2021/06/18 05:51:59;;;;;;;21.60;14.20;;;;;;;;;;5096723;28;20032;-44
2021/06/18 05:54:25;;;;;;;27.08;17.05;;;;;;;;;;5096624;28;20136;-44
2021/06/18 05:56:52;;;;;;;13.02;9.00;;;;;;;;;;5096673;28;20461;-44
2021/06/18 05:59:18;;;;;;;9.45;6.40;;;;;;;;;;5096417;28;20052;-40
2021/06/18 06:01:44;;;;;;;7.60;5.82;;;;;;;;;;5096491;28;20069;-44
2021/06/18 06:04:12;;;;;;;18.27;12.35;;;;;;;;;;5096472;28;20555;-44
2021/06/18 06:06:41;;;;;;;13.20;7.93;;;;;;;;;;5096291;28;20043;-44
2021/06/18 06:09:07;;;;;;;7.30;5.65;;;;;;;;;;5096149;28;20368;-44
2021/06/18 06:11:34;;;;;;;14.23;9.57;;;;;;;;;;5096123;28;20079;-44
2021/06/18 06:14:02;;;;;;;6.13;5.05;;;;;;;;;;5095403;28;20580;-44
2021/06/18 06:16:31;;;;;;;6.47;4.53;;;;;;;;;;5094760;28;20039;-45
2021/06/18 06:18:57;;;;;;;5.85;4.05;;;;;;;;;;5094745;28;20024;-44
2021/06/18 06:21:23;;;;;;;7.03;3.72;;;;;;;;;;5094855;28;20020;-43
2021/06/18 06:23:50;;;;;;;6.80;4.97;;;;;;;;;;5094709;28;20472;-42
2021/06/18 06:26:17;;;;;;;5.32;3.72;;;;;;;;;;5094827;28;20020;-43
2021/06/18 06:28:43;;;;;;;4.63;3.70;;;;;;;;;;5094942;28;20028;-42
2021/06/18 06:31:09;;;;;;;5.72;4.18;;;;;;;;;;5094623;28;20032;-44
2021/06/18 06:33:35;;;;;;;4.18;3.10;;;;;;;;;;5094386;28;20020;-43
2021/06/18 06:36:01;;;;;;;5.28;3.35;;;;;;;;;;5094675;28;20027;-43
2021/06/18 06:38:28;;;;;;;4.00;3.28;;;;;;;;;;5095027;28;20070;-43
2021/06/18 06:40:54;;;;;;;3.67;2.97;;;;;;;;;;5094683;28;20077;-42
2021/06/18 06:43:20;;;;;;;3.85;3.28;;;;;;;;;;5094425;28;20032;-42
2021/06/18 06:45:47;;;;;;;5.20;3.47;;;;;;;;;;5094535;28;20028;-43
2021/06/18 06:48:13;;;;;;;3.67;3.00;;;;;;;;;;5094465;28;20020;-43
2021/06/18 06:50:39;;;;;;;5.93;3.45;;;;;;;;;;5094510;28;20024;-43
2021/06/18 06:53:07;;;;;;;6.63;3.30;;;;;;;;;;5094457;28;20020;-43
2021/06/18 06:55:33;;;;;;;4.15;3.35;;;;;;;;;;5094393;28;20016;-43
2021/06/18 06:58:00;;;;;;;4.20;3.05;;;;;;;;;;5094566;28;20024;-43
2021/06/18 07:00:26;;;;;;;6.75;3.17;;;;;;;;;;5094572;28;20125;-44
2021/06/18 07:02:53;;;;;;;3.67;3.28;;;;;;;;;;5094405;28;20051;-43
2021/06/18 07:05:19;;;;;;;7.90;4.45;;;;;;;;;;5094281;28;20028;-43
2021/06/18 07:07:45;;;;;;;5.32;3.10;;;;;;;;;;5094238;28;20081;-43
2021/06/18 07:10:12;;;;;;;4.03;3.20;;;;;;;;;;5094148;28;20028;-43
2021/06/18 07:12:38;;;;;;;4.72;3.28;;;;;;;;;;5094109;28;20051;-43
2021/06/18 07:15:04;;;;;;;7.68;4.93;;;;;;;;;;5089798;28;143084;-43
2021/06/18 07:17:30;;;;;;;3.78;3.10;;;;;;;;;;5095113;28;20028;-43
2021/06/18 07:19:57;;;;;;;5.75;3.47;;;;;;;;;;5094990;28;20027;-43
2021/06/18 07:22:24;;;;;;;4.55;2.83;;;;;;;;;;5095275;28;20047;-43
2021/06/18 07:24:51;;;;;;;5.20;2.55;;;;;;;;;;5095089;28;20043;-43
2021/06/18 07:27:17;;;;;;;4.07;2.70;;;;;;;;;;5094990;28;20069;-43
2021/06/18 07:29:44;;;;;;;6.90;3.92;;;;;;;;;;5094733;28;20026;-42
2021/06/18 07:32:10;;;;;;;8.02;5.40;;;;;;;;;;5094630;28;20510;-43
2021/06/18 07:34:36;;;;;;;4.93;3.58;;;;;;;;;;5094656;28;20065;-42
2021/06/18 07:37:03;;;;;;;4.88;3.72;;;;;;;;;;5094615;28;20027;-43
2021/06/18 07:39:29;;;;;;;2.50;2.30;;;;;;;;;;5094600;28;20492;-42
2021/06/18 07:41:55;;;;;;;3.75;1.95;;;;;;;;;;5094465;28;20092;-42
2021/06/18 07:44:21;;;;;;;5.35;3.40;;;;;;;;;;5093590;28;20026;-42
2021/06/18 07:46:47;;;;;;;3.85;3.25;;;;;;;;;;5094339;28;20032;-42
2021/06/18 07:49:13;;;;;;;5.40;2.60;;;;;;;;;;5094466;28;20027;-41
2021/06/18 07:51:40;;;;;;;85.78;58.08;;;;;;;;;;5094125;28;20040;-43
2021/06/18 07:54:06;;;;;;;92.40;24.02;;;;;;;;;;5094308;28;20027;-43
2021/06/18 07:56:34;;;;;;;7.97;4.25;;;;;;;;;;5094302;28;20043;-41
2021/06/18 07:59:00;;;;;;;2.90;2.13;;;;;;;;;;5094210;28;20028;-44
2021/06/18 08:01:27;;;;;;;2.75;2.22;;;;;;;;;;5094290;28;20024;-49
2021/06/18 08:03:53;;;;;;;6.05;3.70;;;;;;;;;;5093995;28;20468;-44
2021/06/18 08:06:19;;;;;;;4.53;2.40;;;;;;;;;;5094056;28;20434;-46
2021/06/18 08:08:46;;;;;;;18.15;7.43;;;;;;;;;;5094301;28;20056;-43
2021/06/18 08:11:12;;;;;;;19.80;8.02;;;;;;;;;;5093819;28;20028;-43
2021/06/18 08:13:40;;;;;;;10.10;6.30;;;;;;;;;;5093797;28;20052;-43
2021/06/18 08:16:06;;;;;;;12.30;7.55;;;;;;;;;;5093823;28;20060;-43
2021/06/18 08:18:35;;;;;;;4.60;2.42;;;;;;;;;;5093785;28;20026;-43
2021/06/18 08:21:02;;;;;;;2.45;1.98;;;;;;;;;;5093911;28;20171;-43
2021/06/18 08:23:28;;;;;;;2.70;1.80;;;;;;;;;;5093784;28;20020;-49
2021/06/18 08:25:54;;;;;;;2.30;2.10;;;;;;;;;;5094030;28;20047;-43
2021/06/18 08:28:20;;;;;;;2.10;1.63;;;;;;;;;;5093838;28;20020;-46
2021/06/18 08:30:47;;;;;;;4.00;1.98;;;;;;;;;;5093625;28;20040;-43
2021/06/18 08:33:13;;;;;;;2.25;1.95;;;;;;;;;;5093696;28;20047;-44
2021/06/18 08:35:39;;;;;;;2.72;2.30;;;;;;;;;;5093384;28;20025;-44
2021/06/18 08:38:05;;;;;;;3.55;2.83;;;;;;;;;;5093650;28;20016;-44
2021/06/18 08:40:32;;;;;;;3.28;2.78;;;;;;;;;;5093796;28;20484;-44
2021/06/18 08:42:59;;;;;;;3.72;2.40;;;;;;;;;;5093859;28;20051;-44
2021/06/18 08:45:25;;;;;;;2.42;2.08;;;;;;;;;;5093873;28;20039;-44
2021/06/18 08:47:51;;;;;;;2.55;1.90;;;;;;;;;;5093573;28;20024;-44
2021/06/18 08:50:24;;;;;;;2.90;2.05;;;;;;;;;;5093388;28;20032;-42
2021/06/18 08:52:52;;;;;;;2.67;2.05;;;;;;;;;;5093314;28;20050;-43
2021/06/18 08:55:20;;;;;;;2.28;1.88;;;;;;;;;;5093319;28;20023;-43
2021/06/18 08:57:55;;;;;;;2.10;1.88;;;;;;;;;;5093158;28;20032;-43
2021/06/18 09:00:22;;;;;;;2.70;2.00;;;;;;;;;;5093286;28;20056;-43
2021/06/18 09:02:49;;;;;;;2.55;1.90;;;;;;;;;;5093276;28;20062;-44
2021/06/18 09:05:15;;;;;;;3.03;2.53;;;;;;;;;;5093068;28;20518;-44
2021/06/18 09:07:47;;;;;;;3.13;1.83;;;;;;;;;;5093549;28;20421;-44
2021/06/18 09:10:23;;;;;;;2.20;1.70;;;;;;;;;;5093469;28;20032;-44
2021/06/18 09:13:08;;;;;;;3.40;2.30;;;;;;;;;;5093141;28;20101;-44
2021/06/18 09:15:34;;;;;;;3.70;2.70;;;;;;;;;;5093105;28;20047;-44
2021/06/18 09:18:19;;;;;;;4.53;2.90;;;;;;;;;;5092081;28;20032;-44
2021/06/18 09:20:45;;;;;;;4.32;2.28;;;;;;;;;;5093322;28;20028;-44
2021/06/18 09:23:22;;;;;;;3.15;2.50;;;;;;;;;;5093348;28;20456;-43
2021/06/18 09:25:48;;;;;;;2.05;1.88;;;;;;;;;;5092999;28;20032;-43
2021/06/18 09:28:14;;;;;;;2.47;2.13;;;;;;;;;;5093033;28;20027;-43
2021/06/18 09:30:40;;;;;;;3.60;2.47;;;;;;;;;;5093069;28;20056;-44
2021/06/18 09:33:11;;;;;;;2.20;2.00;;;;;;;;;;5092830;28;20118;-43
2021/06/18 09:35:37;;;;;;;1.73;1.63;;;;;;;;;;5093068;28;20020;-44
2021/06/18 09:38:05;;;;;;;1.70;1.58;;;;;;;;;;5093019;28;20058;-44
2021/06/18 09:40:31;;;;;;;2.40;2.20;;;;;;;;;;5091659;28;20032;-43
2021/06/18 09:43:01;;;;;;;3.08;2.30;;;;;;;;;;5092882;28;20048;-44
2021/06/18 09:45:28;;;;;;;4.57;2.00;;;;;;;;;;5092978;28;20028;-44
2021/06/18 09:48:07;;;;;;;2.85;2.17;;;;;;;;;;5092991;28;20027;-44
2021/06/18 09:50:33;;;;;;;2.72;2.28;;;;;;;;;;5092875;28;20025;-44
2021/06/18 09:53:14;;;;;;;2.28;1.60;;;;;;;;;;5092761;28;20069;-44
2021/06/18 09:55:41;;;;;;;3.67;2.38;;;;;;;;;;5092699;28;20024;-46
2021/06/18 09:58:08;;;;;;;2.10;1.88;;;;;;;;;;5093112;28;20110;-45
2021/06/18 10:00:34;;;;;;;3.17;1.70;;;;;;;;;;5092974;28;20024;-44
2021/06/18 10:03:00;;;;;;;1.80;1.63;;;;;;;;;;5092753;28;20024;-47
2021/06/18 10:05:36;;;;;;;1.73;1.63;;;;;;;;;;5092641;28;20070;-43
2021/06/18 10:08:03;;;;;;;1.95;1.73;;;;;;;;;;5095052;28;20426;-43
2021/06/18 10:10:30;;;;;;;2.15;1.95;;;;;;;;;;5096349;28;20428;-43
2021/06/18 10:12:57;;;;;;;1.90;1.70;;;;;;;;;;5096424;28;20036;-43
2021/06/18 10:15:24;;;;;;;2.75;1.80;;;;;;;;;;5096069;28;20044;-43
2021/06/18 10:17:51;;;;;;;3.17;2.03;;;;;;;;;;5096036;28;20028;-43
2021/06/18 10:20:19;;;;;;;2.17;1.98;;;;;;;;;;5095980;28;20379;-44
2021/06/18 10:22:54;;;;;;;2.60;1.90;;;;;;;;;;5096078;28;20492;-44
2021/06/18 10:25:25;;;;;;;3.08;1.90;;;;;;;;;;5096318;28;20028;-44
2021/06/18 10:27:51;;;;;;;2.58;2.00;;;;;;;;;;5096243;28;20063;-44
2021/06/18 10:30:31;;;;;;;4.20;2.10;;;;;;;;;;5095972;28;20013;-43
2021/06/18 10:33:03;;;;;;;5.72;1.58;;;;;;;;;;5096026;28;20024;-43
2021/06/18 10:35:44;;;;;;;3.15;1.70;;;;;;;;;;5095844;28;20024;-44
2021/06/18 10:38:27;;;;;;;3.13;1.70;;;;;;;;;;5095863;28;20032;-44
2021/06/18 10:40:55;;;;;;;5.18;1.60;;;;;;;;;;5095764;28;20124;-43
2021/06/18 10:43:21;;;;;;;1.70;1.60;;;;;;;;;;5095890;28;20468;-43
2021/06/18 10:46:02;;;;;;;1.83;1.67;;;;;;;;;;5095529;28;20096;-43
2021/06/18 10:48:50;;;;;;;2.05;1.65;;;;;;;;;;5095568;28;20019;-43
2021/06/18 10:51:24;;;;;;;2.17;1.83;;;;;;;;;;5095596;28;20036;-43
2021/06/18 10:53:52;;;;;;;4.88;2.00;;;;;;;;;;5095372;28;20103;-44
2021/06/18 10:56:18;;;;;;;2.28;1.58;;;;;;;;;;5095499;28;20032;-43
2021/06/18 10:59:03;;;;;;;4.47;2.03;;;;;;;;;;5095611;28;20341;-44
2021/06/18 11:01:31;;;;;;;2.30;2.10;;;;;;;;;;5095429;28;20024;-44
2021/06/18 11:03:57;;;;;;;1.88;1.50;;;;;;;;;;5095282;28;20073;-44
2021/06/18 11:06:48;;;;;;;3.83;2.15;;;;;;;;;;5095360;28;20053;-44
2021/06/18 11:09:47;;;;;;;4.95;3.35;;;;;;;;;;5095338;28;20031;-43
2021/06/18 11:12:26;;;;;;;2.35;1.83;;;;;;;;;;5072738;28;20072;-43
2021/06/18 11:14:55;;;;;;;2.65;1.98;;;;;;;;;;5072516;28;20078;-44
2021/06/18 11:17:40;;;;;;;2.75;2.15;;;;;;;;;;5072516;28;20661;-43
2021/06/18 11:20:10;;;;;;;3.90;1.88;;;;;;;;;;5071670;28;20032;-44
2021/06/18 11:22:47;;;;;;;2.30;2.00;;;;;;;;;;5073007;28;20048;-44
2021/06/18 11:25:34;;;;;;;5.20;2.35;;;;;;;;;;5072652;28;20249;-44
2021/06/18 11:28:20;;;;;;;3.78;1.90;;;;;;;;;;5065371;28;20036;-44
2021/06/18 11:31:09;;;;;;;1.73;1.58;;;;;;;;;;5065464;28;20412;-44
2021/06/18 11:33:41;;;;;;;3.08;2.28;;;;;;;;;;5067096;28;20074;-44
2021/06/18 11:36:08;;;;;;;2.45;1.95;;;;;;;;;;5072431;28;20028;-44
2021/06/18 11:38:35;;;;;;;4.35;2.00;;;;;;;;;;5072229;28;20110;-43
2021/06/18 11:41:04;;;;;;;2.58;1.85;;;;;;;;;;5072178;28;20032;-43
2021/06/18 11:43:30;;;;;;;4.47;2.00;;;;;;;;;;5072314;28;20117;-43
2021/06/18 11:45:58;;;;;;;2.42;2.00;;;;;;;;;;5071998;28;20046;-43
2021/06/18 11:48:24;;;;;;;2.60;1.83;;;;;;;;;;5088862;28;20043;-44
2021/06/18 11:50:50;;;;;;;2.55;1.70;;;;;;;;;;5094220;28;20433;-43
2021/06/18 11:53:16;;;;;;;3.20;1.85;;;;;;;;;;5094168;28;20031;-43
2021/06/18 11:55:43;;;;;;;2.00;1.65;;;;;;;;;;5094770;28;20024;-43
2021/06/18 11:58:28;;;;;;;1.75;1.50;;;;;;;;;;5094274;28;20027;-44
2021/06/18 12:00:54;;;;;;;3.75;1.70;;;;;;;;;;5094162;28;20020;-44
2021/06/18 12:03:31;;;;;;;2.25;1.70;;;;;;;;;;5094074;28;20052;-44
2021/06/18 12:05:57;;;;;;;2.15;1.50;;;;;;;;;;5094011;28;20024;-44
2021/06/18 12:08:23;;;;;;;3.58;1.58;;;;;;;;;;5094301;28;20028;-44
2021/06/18 12:10:49;;;;;;;4.38;1.70;;;;;;;;;;5093883;28;20032;-43
2021/06/18 12:13:15;;;;;;;2.00;1.77;;;;;;;;;;5093777;28;20032;-44
2021/06/18 12:15:43;;;;;;;2.15;1.95;;;;;;;;;;5093974;28;20498;-44
2021/06/18 12:18:09;;;;;;;1.88;1.58;;;;;;;;;;5093674;28;20028;-43
2021/06/18 12:20:37;;;;;;;1.90;1.75;;;;;;;;;;5093770;28;20048;-43
2021/06/18 12:23:05;;;;;;;3.88;1.73;;;;;;;;;;5093482;28;20032;-43
2021/06/18 12:25:32;;;;;;;31.75;23.65;;;;;;;;;;5075087;28;20017;-42
2021/06/18 12:28:00;;;;;;;5.20;2.30;;;;;;;;;;5073189;28;20472;-43
2021/06/18 12:30:29;;;;;;;13.07;10.55;;;;;;;;;;5071179;28;20033;-42
2021/06/18 12:32:55;;;;;;;192.18;170.85;;;;;;;;;;5069610;28;20029;-43
2021/06/18 12:35:32;;;;;;;16.80;13.65;;;;;;;;;;5072204;28;20550;-42
2021/06/18 12:38:00;;;;;;;6.45;5.25;;;;;;;;;;5070263;28;20024;-43
2021/06/18 12:40:28;;;;;;;1.90;1.70;;;;;;;;;;5072694;28;20025;-42
2021/06/18 12:42:55;;;;;;;34.92;26.70;;;;;;;;;;5072552;28;20469;-43
2021/06/18 12:45:25;;;;;;;88.93;72.38;;;;;;;;;;5069892;28;20119;-42
2021/06/18 12:47:52;;;;;;;14.10;11.52;;;;;;;;;;5072276;28;20126;-43
2021/06/18 12:50:27;;;;;;;43.05;34.10;;;;;;;;;;5072327;28;20031;-43
2021/06/18 12:52:55;;;;;;;48.28;41.45;;;;;;;;;;5072456;28;20515;-42
2021/06/18 12:55:25;;;;;;;23.58;17.25;;;;;;;;;;5093466;28;20452;-42
2021/06/18 12:58:01;;;;;;;98.57;75.18;;;;;;;;;;5093095;28;20024;-43
2021/06/18 13:00:29;;;;;;;60.95;43.65;;;;;;;;;;5092904;28;20063;-43
2021/06/18 13:02:58;;;;;;;2.30;2.10;;;;;;;;;;5092913;28;20095;-42
2021/06/18 13:05:26;;;;;;;34.50;25.00;;;;;;;;;;5093129;28;20024;-42
2021/06/18 13:07:52;;;;;;;47.20;35.42;;;;;;;;;;5093454;28;20028;-42
2021/06/18 13:10:18;;;;;;;53.30;40.63;;;;;;;;;;5092865;28;20492;-43
2021/06/18 13:12:56;;;;;;;45.17;32.92;;;;;;;;;;5092898;28;20047;-43
2021/06/18 13:15:27;;;;;;;18.20;14.38;;;;;;;;;;5092735;28;20071;-44
2021/06/18 13:17:53;;;;;;;;;;;;;;;;;;5093549;28;20078;-42
2021/06/18 13:20:39;;;;;;;38.30;29.75;;;;;;;;;;5092820;28;19904;-43
2021/06/18 13:23:23;;;;;;;4.70;3.60;;;;;;;;;;5092365;28;20100;-42
2021/06/18 13:25:50;;;;;;;42.15;29.90;;;;;;;;;;5093027;28;20096;-42
2021/06/18 13:28:34;;;;;;;14.27;9.23;;;;;;;;;;5092726;28;20028;-42
2021/06/18 13:31:00;;;;;;;25.98;16.50;;;;;;;;;;5092944;28;20525;-42
2021/06/18 13:33:27;;;;;;;20.88;13.73;;;;;;;;;;5092621;28;20050;-44
2021/06/18 13:35:53;;;;;;;3.35;2.40;;;;;;;;;;5092783;28;20020;-43
2021/06/18 13:38:19;;;;;;;5.22;2.70;;;;;;;;;;5092668;28;20051;-43
2021/06/18 13:40:52;;;;;;;4.43;3.25;;;;;;;;;;5092932;28;20031;-43
2021/06/18 13:43:18;;;;;;;104.60;54.17;;;;;;;;;;5096002;28;20111;-43
2021/06/18 13:45:44;;;;;;;9.60;4.53;;;;;;;;;;5096543;28;20035;-42
2021/06/18 13:48:10;;;;;;;2.67;2.42;;;;;;;;;;5096593;28;20107;-43
2021/06/18 13:50:48;;;;;;;16.45;12.52;;;;;;;;;;5096315;28;20507;-44
2021/06/18 13:53:14;;;;;;;24.60;17.30;;;;;;;;;;5096163;28;20043;-44
2021/06/18 13:55:40;;;;;;;16.83;13.77;;;;;;;;;;5096733;28;20020;-47
2021/06/18 13:58:07;;;;;;;7.90;6.70;;;;;;;;;;5096532;28;20089;-43
2021/06/18 14:00:34;;;;;;;14.40;10.30;;;;;;;;;;5096557;28;20131;-44
2021/06/18 14:03:00;;;;;;;1.80;1.48;;;;;;;;;;5096468;28;20114;-42
2021/06/18 14:05:27;;;;;;;35.75;30.90;;;;;;;;;;5096118;28;20028;-45
2021/06/18 14:07:53;;;;;;;27.20;22.98;;;;;;;;;;5096103;28;20024;-42
2021/06/18 14:10:19;;;;;;;16.73;12.07;;;;;;;;;;5096279;28;20065;-43
2021/06/18 14:12:45;;;;;;;21.13;17.35;;;;;;;;;;5095975;28;20048;-43
2021/06/18 14:15:24;;;;;;;56.00;44.70;;;;;;;;;;5095965;28;20048;-42
2021/06/18 14:17:50;;;;;;;8.50;7.10;;;;;;;;;;5096179;28;20031;-42
2021/06/18 14:20:17;;;;;;;18.15;13.25;;;;;;;;;;5095794;28;20032;-43
2021/06/18 14:22:43;;;;;;;13.60;10.52;;;;;;;;;;5096266;28;20022;-43
2021/06/18 14:25:09;;;;;;;4.53;3.40;;;;;;;;;;5095581;28;20042;-44
2021/06/18 14:27:36;;;;;;;2.58;1.92;;;;;;;;;;5095994;28;20030;-42
2021/06/18 14:30:02;;;;;;;9.90;6.93;;;;;;;;;;5095787;28;20472;-42
2021/06/18 14:32:31;;;;;;;2.92;1.92;;;;;;;;;;5096217;28;20043;-44
2021/06/18 14:34:57;;;;;;;2.67;2.13;;;;;;;;;;5095675;28;20111;-41
2021/06/18 14:37:23;;;;;;;6.00;3.88;;;;;;;;;;5095788;28;20095;-43
2021/06/18 14:39:49;;;;;;;4.03;2.17;;;;;;;;;;5095713;28;20486;-44
2021/06/18 14:42:16;;;;;;;10.38;5.22;;;;;;;;;;5095713;28;20028;-42